Anderson, Nebraska
Current Conditions -  °F | °C
As of 10:55 AM on Thursday 23 Oct 2014 (Local Time) from KHDE Reporting Station
Moderate Fog Moderate Fog  
Wind Chill: 11°   Ceiling: 100
Heat Index: 11°   Visibility: 0mi
Dew Point: 10°   Wind: 0mph
Humidity: 97%   Direction: NA
Pressure: 30.11"   Gusts: NA
Location:  40.5251°N, 99.2414°W
Report Text: KHDE 231555Z AUTO 00000KT M1/4SM FG OVC001 11/10 A3011 RMK AO2 T01050100
Loading
Personal Weather Stations






























Interactive Weather Map
Tropical Storm Tracking
New forecast layout! Learn more

10-Day Weather Forecast

Advertisements
Track Severe Weather on mobile